sensor_id;sensor_type;location;lat;lon;timestamp;temperature;humidity
45283;DHT22;31023;44.994;1.796;2024-02-21T00:01:45;6.50;94.70
45283;DHT22;31023;44.994;1.796;2024-02-21T00:04:11;6.50;94.60
45283;DHT22;31023;44.994;1.796;2024-02-21T00:06:39;6.50;94.60
45283;DHT22;31023;44.994;1.796;2024-02-21T00:09:04;6.50;94.70
45283;DHT22;31023;44.994;1.796;2024-02-21T00:11:30;6.40;94.90
45283;DHT22;31023;44.994;1.796;2024-02-21T00:13:55;6.40;95.00
45283;DHT22;31023;44.994;1.796;2024-02-21T00:16:21;6.40;95.10
45283;DHT22;31023;44.994;1.796;2024-02-21T00:18:47;6.30;95.10
45283;DHT22;31023;44.994;1.796;2024-02-21T00:21:13;6.30;95.20
45283;DHT22;31023;44.994;1.796;2024-02-21T00:23:44;6.30;95.40
45283;DHT22;31023;44.994;1.796;2024-02-21T00:26:14;6.20;95.60
45283;DHT22;31023;44.994;1.796;2024-02-21T00:28:40;6.00;96.00
45283;DHT22;31023;44.994;1.796;2024-02-21T00:31:05;6.00;96.10
45283;DHT22;31023;44.994;1.796;2024-02-21T00:33:31;6.10;96.10
45283;DHT22;31023;44.994;1.796;2024-02-21T00:35:56;6.00;96.30
45283;DHT22;31023;44.994;1.796;2024-02-21T00:38:22;5.90;96.50
45283;DHT22;31023;44.994;1.796;2024-02-21T00:40:48;6.00;96.50
45283;DHT22;31023;44.994;1.796;2024-02-21T00:43:13;6.00;96.70
45283;DHT22;31023;44.994;1.796;2024-02-21T00:45:39;5.90;96.70
45283;DHT22;31023;44.994;1.796;2024-02-21T00:48:05;5.90;96.90
45283;DHT22;31023;44.994;1.796;2024-02-21T00:50:31;6.00;96.90
45283;DHT22;31023;44.994;1.796;2024-02-21T00:52:57;5.90;96.80
45283;DHT22;31023;44.994;1.796;2024-02-21T00:55:23;5.90;97.00
45283;DHT22;31023;44.994;1.796;2024-02-21T00:57:49;5.90;97.10
45283;DHT22;31023;44.994;1.796;2024-02-21T01:00:15;6.00;97.00
45283;DHT22;31023;44.994;1.796;2024-02-21T01:02:40;6.00;96.80
45283;DHT22;31023;44.994;1.796;2024-02-21T01:05:07;6.10;96.70
45283;DHT22;31023;44.994;1.796;2024-02-21T01:07:32;6.10;96.60
45283;DHT22;31023;44.994;1.796;2024-02-21T01:09:58;6.10;96.60
45283;DHT22;31023;44.994;1.796;2024-02-21T01:12:24;5.80;97.10
45283;DHT22;31023;44.994;1.796;2024-02-21T01:14:50;5.80;97.40
45283;DHT22;31023;44.994;1.796;2024-02-21T01:17:15;5.80;97.50
45283;DHT22;31023;44.994;1.796;2024-02-21T01:19:41;5.70;97.80
45283;DHT22;31023;44.994;1.796;2024-02-21T01:22:07;5.70;97.90
45283;DHT22;31023;44.994;1.796;2024-02-21T01:24:33;5.60;98.20
45283;DHT22;31023;44.994;1.796;2024-02-21T01:26:58;5.50;98.40
45283;DHT22;31023;44.994;1.796;2024-02-21T01:29:24;5.50;98.60
45283;DHT22;31023;44.994;1.796;2024-02-21T01:31:50;5.50;98.70
45283;DHT22;31023;44.994;1.796;2024-02-21T01:34:15;5.50;98.80
45283;DHT22;31023;44.994;1.796;2024-02-21T01:36:41;5.50;98.80
45283;DHT22;31023;44.994;1.796;2024-02-21T01:39:07;5.50;98.80
45283;DHT22;31023;44.994;1.796;2024-02-21T01:41:33;5.50;98.80
45283;DHT22;31023;44.994;1.796;2024-02-21T01:43:59;5.60;98.70
45283;DHT22;31023;44.994;1.796;2024-02-21T01:46:24;5.60;98.50
45283;DHT22;31023;44.994;1.796;2024-02-21T01:48:55;5.60;98.60
45283;DHT22;31023;44.994;1.796;2024-02-21T01:51:21;5.50;98.80
45283;DHT22;31023;44.994;1.796;2024-02-21T01:53:47;5.40;99.00
45283;DHT22;31023;44.994;1.796;2024-02-21T01:56:13;5.40;99.20
45283;DHT22;31023;44.994;1.796;2024-02-21T01:58:40;5.40;99.30
45283;DHT22;31023;44.994;1.796;2024-02-21T02:01:08;5.40;99.40
45283;DHT22;31023;44.994;1.796;2024-02-21T02:03:34;5.30;99.60
45283;DHT22;31023;44.994;1.796;2024-02-21T02:06:00;5.20;99.90
45283;DHT22;31023;44.994;1.796;2024-02-21T02:08:26;5.10;99.90
45283;DHT22;31023;44.994;1.796;2024-02-21T02:10:52;5.10;99.90
45283;DHT22;31023;44.994;1.796;2024-02-21T02:13:18;5.00;99.90
45283;DHT22;31023;44.994;1.796;2024-02-21T02:15:45;4.90;99.90
45283;DHT22;31023;44.994;1.796;2024-02-21T02:18:12;5.00;99.90
45283;DHT22;31023;44.994;1.796;2024-02-21T02:20:38;4.90;99.90
45283;DHT22;31023;44.994;1.796;2024-02-21T02:25:29;4.90;99.90
45283;DHT22;31023;44.994;1.796;2024-02-21T02:27:55;5.00;99.90
45283;DHT22;31023;44.994;1.796;2024-02-21T02:30:21;4.90;99.90
45283;DHT22;31023;44.994;1.796;2024-02-21T02:32:46;5.00;99.90
45283;DHT22;31023;44.994;1.796;2024-02-21T02:35:12;4.90;99.90
45283;DHT22;31023;44.994;1.796;2024-02-21T02:37:38;4.90;99.90
45283;DHT22;31023;44.994;1.796;2024-02-21T02:40:06;4.90;99.90
45283;DHT22;31023;44.994;1.796;2024-02-21T02:42:31;5.00;99.90
45283;DHT22;31023;44.994;1.796;2024-02-21T02:44:57;5.00;99.90
45283;DHT22;31023;44.994;1.796;2024-02-21T02:47:23;5.00;99.90
45283;DHT22;31023;44.994;1.796;2024-02-21T02:49:49;5.10;99.90
45283;DHT22;31023;44.994;1.796;2024-02-21T02:52:17;5.20;99.90
45283;DHT22;31023;44.994;1.796;2024-02-21T02:54:43;5.20;99.90
45283;DHT22;31023;44.994;1.796;2024-02-21T02:57:09;5.30;99.90
45283;DHT22;31023;44.994;1.796;2024-02-21T02:59:35;5.30;99.90
45283;DHT22;31023;44.994;1.796;2024-02-21T03:02:01;5.30;99.90
45283;DHT22;31023;44.994;1.796;2024-02-21T03:04:26;5.20;99.90
45283;DHT22;31023;44.994;1.796;2024-02-21T03:06:52;5.30;99.90
45283;DHT22;31023;44.994;1.796;2024-02-21T03:09:18;5.30;99.90
45283;DHT22;31023;44.994;1.796;2024-02-21T03:11:44;5.20;99.90
45283;DHT22;31023;44.994;1.796;2024-02-21T03:14:10;5.20;99.90
45283;DHT22;31023;44.994;1.796;2024-02-21T03:16:36;5.20;99.90
45283;DHT22;31023;44.994;1.796;2024-02-21T03:19:01;5.10;99.90
45283;DHT22;31023;44.994;1.796;2024-02-21T03:21:27;5.10;99.90
45283;DHT22;31023;44.994;1.796;2024-02-21T03:23:53;5.10;99.90
45283;DHT22;31023;44.994;1.796;2024-02-21T03:26:18;5.10;99.90
45283;DHT22;31023;44.994;1.796;2024-02-21T03:28:44;5.10;99.90
45283;DHT22;31023;44.994;1.796;2024-02-21T03:31:13;5.10;99.90
45283;DHT22;31023;44.994;1.796;2024-02-21T03:33:41;5.10;99.90
45283;DHT22;31023;44.994;1.796;2024-02-21T03:36:13;5.10;99.90
45283;DHT22;31023;44.994;1.796;2024-02-21T03:38:39;5.20;99.90
45283;DHT22;31023;44.994;1.796;2024-02-21T03:41:05;5.30;99.90
45283;DHT22;31023;44.994;1.796;2024-02-21T03:43:31;5.20;99.90
45283;DHT22;31023;44.994;1.796;2024-02-21T03:45:57;5.20;99.90
45283;DHT22;31023;44.994;1.796;2024-02-21T03:48:22;5.20;99.90
45283;DHT22;31023;44.994;1.796;2024-02-21T03:50:48;5.20;99.90
45283;DHT22;31023;44.994;1.796;2024-02-21T03:53:14;5.20;99.90
45283;DHT22;31023;44.994;1.796;2024-02-21T03:55:39;5.20;99.90
45283;DHT22;31023;44.994;1.796;2024-02-21T03:58:05;5.20;99.90
45283;DHT22;31023;44.994;1.796;2024-02-21T04:00:30;5.20;99.90
45283;DHT22;31023;44.994;1.796;2024-02-21T04:02:56;5.10;99.90
45283;DHT22;31023;44.994;1.796;2024-02-21T04:05:22;5.10;99.90
45283;DHT22;31023;44.994;1.796;2024-02-21T04:07:47;4.90;99.90
45283;DHT22;31023;44.994;1.796;2024-02-21T04:10:13;4.80;99.90
45283;DHT22;31023;44.994;1.796;2024-02-21T04:12:39;4.70;99.90
45283;DHT22;31023;44.994;1.796;2024-02-21T04:15:05;4.60;99.90
45283;DHT22;31023;44.994;1.796;2024-02-21T04:17:31;4.60;99.90
45283;DHT22;31023;44.994;1.796;2024-02-21T04:20:04;4.70;99.90
45283;DHT22;31023;44.994;1.796;2024-02-21T04:22:33;4.60;99.90
45283;DHT22;31023;44.994;1.796;2024-02-21T04:25:00;4.60;99.90
45283;DHT22;31023;44.994;1.796;2024-02-21T04:27:26;4.60;99.90
45283;DHT22;31023;44.994;1.796;2024-02-21T04:29:52;4.70;99.90
45283;DHT22;31023;44.994;1.796;2024-02-21T04:32:18;4.60;99.90
45283;DHT22;31023;44.994;1.796;2024-02-21T04:34:44;4.70;99.90
45283;DHT22;31023;44.994;1.796;2024-02-21T04:37:10;4.70;99.90
45283;DHT22;31023;44.994;1.796;2024-02-21T04:39:35;4.70;99.90
45283;DHT22;31023;44.994;1.796;2024-02-21T04:42:01;4.60;99.90
45283;DHT22;31023;44.994;1.796;2024-02-21T04:44:27;4.60;99.90
45283;DHT22;31023;44.994;1.796;2024-02-21T04:46:53;4.50;99.90
45283;DHT22;31023;44.994;1.796;2024-02-21T04:49:18;4.50;99.90
45283;DHT22;31023;44.994;1.796;2024-02-21T04:51:44;4.40;99.90
45283;DHT22;31023;44.994;1.796;2024-02-21T04:54:09;4.40;99.90
45283;DHT22;31023;44.994;1.796;2024-02-21T04:56:35;4.40;99.90
45283;DHT22;31023;44.994;1.796;2024-02-21T04:59:01;4.30;99.90
45283;DHT22;31023;44.994;1.796;2024-02-21T05:01:28;4.30;99.90
45283;DHT22;31023;44.994;1.796;2024-02-21T05:03:54;4.30;99.90
45283;DHT22;31023;44.994;1.796;2024-02-21T05:06:19;4.20;99.90
45283;DHT22;31023;44.994;1.796;2024-02-21T05:08:45;4.20;99.90
45283;DHT22;31023;44.994;1.796;2024-02-21T05:11:11;4.20;99.90
45283;DHT22;31023;44.994;1.796;2024-02-21T05:13:36;4.20;99.90
45283;DHT22;31023;44.994;1.796;2024-02-21T05:16:02;4.20;99.90
45283;DHT22;31023;44.994;1.796;2024-02-21T05:18:28;4.30;99.90
45283;DHT22;31023;44.994;1.796;2024-02-21T05:20:54;4.30;99.90
45283;DHT22;31023;44.994;1.796;2024-02-21T05:23:19;4.40;99.90
45283;DHT22;31023;44.994;1.796;2024-02-21T05:25:45;4.40;99.90
45283;DHT22;31023;44.994;1.796;2024-02-21T05:28:11;4.40;99.90
45283;DHT22;31023;44.994;1.796;2024-02-21T05:30:36;4.40;99.90
45283;DHT22;31023;44.994;1.796;2024-02-21T05:33:06;4.50;99.90
45283;DHT22;31023;44.994;1.796;2024-02-21T05:35:31;4.50;99.90
45283;DHT22;31023;44.994;1.796;2024-02-21T05:37:57;4.60;99.90
45283;DHT22;31023;44.994;1.796;2024-02-21T05:40:23;4.50;99.90
45283;DHT22;31023;44.994;1.796;2024-02-21T05:42:49;4.50;99.90
45283;DHT22;31023;44.994;1.796;2024-02-21T05:45:16;4.50;99.90
45283;DHT22;31023;44.994;1.796;2024-02-21T05:47:42;4.50;99.90
45283;DHT22;31023;44.994;1.796;2024-02-21T05:50:08;4.50;99.90
45283;DHT22;31023;44.994;1.796;2024-02-21T05:52:34;4.50;99.90
45283;DHT22;31023;44.994;1.796;2024-02-21T05:55:00;4.50;99.90
45283;DHT22;31023;44.994;1.796;2024-02-21T05:57:25;4.50;99.90
45283;DHT22;31023;44.994;1.796;2024-02-21T05:59:51;4.40;99.90
45283;DHT22;31023;44.994;1.796;2024-02-21T06:02:17;4.40;99.90
45283;DHT22;31023;44.994;1.796;2024-02-21T06:04:42;4.40;99.90
45283;DHT22;31023;44.994;1.796;2024-02-21T06:07:08;4.40;99.90
45283;DHT22;31023;44.994;1.796;2024-02-21T06:09:34;4.40;99.90
45283;DHT22;31023;44.994;1.796;2024-02-21T06:11:59;4.40;99.90
45283;DHT22;31023;44.994;1.796;2024-02-21T06:14:25;4.30;99.90
45283;DHT22;31023;44.994;1.796;2024-02-21T06:16:51;4.30;99.90
45283;DHT22;31023;44.994;1.796;2024-02-21T06:19:17;4.30;99.90
45283;DHT22;31023;44.994;1.796;2024-02-21T06:21:42;4.30;99.90
45283;DHT22;31023;44.994;1.796;2024-02-21T06:24:08;4.30;99.90
45283;DHT22;31023;44.994;1.796;2024-02-21T06:26:34;4.20;99.90
45283;DHT22;31023;44.994;1.796;2024-02-21T06:28:59;4.20;99.90
45283;DHT22;31023;44.994;1.796;2024-02-21T06:31:25;4.10;99.90
45283;DHT22;31023;44.994;1.796;2024-02-21T06:33:51;4.00;99.90
45283;DHT22;31023;44.994;1.796;2024-02-21T06:36:16;4.10;99.90
45283;DHT22;31023;44.994;1.796;2024-02-21T06:38:42;4.20;99.90
45283;DHT22;31023;44.994;1.796;2024-02-21T06:41:17;4.20;99.90
45283;DHT22;31023;44.994;1.796;2024-02-21T06:43:47;4.20;99.90
45283;DHT22;31023;44.994;1.796;2024-02-21T06:46:27;4.30;99.90
45283;DHT22;31023;44.994;1.796;2024-02-21T06:48:59;4.40;99.90
45283;DHT22;31023;44.994;1.796;2024-02-21T06:51:26;4.50;99.90
45283;DHT22;31023;44.994;1.796;2024-02-21T06:53:53;4.60;99.90
45283;DHT22;31023;44.994;1.796;2024-02-21T06:56:19;4.70;99.90
45283;DHT22;31023;44.994;1.796;2024-02-21T06:58:44;4.80;99.90
45283;DHT22;31023;44.994;1.796;2024-02-21T07:01:10;4.80;99.90
45283;DHT22;31023;44.994;1.796;2024-02-21T07:03:37;4.80;99.90
45283;DHT22;31023;44.994;1.796;2024-02-21T07:06:02;4.80;99.90
45283;DHT22;31023;44.994;1.796;2024-02-21T07:08:28;4.80;99.90
45283;DHT22;31023;44.994;1.796;2024-02-21T07:10:54;4.90;99.90
45283;DHT22;31023;44.994;1.796;2024-02-21T07:13:20;5.00;99.90
45283;DHT22;31023;44.994;1.796;2024-02-21T07:15:47;5.00;99.90
45283;DHT22;31023;44.994;1.796;2024-02-21T07:18:13;5.10;99.90
45283;DHT22;31023;44.994;1.796;2024-02-21T07:20:39;5.10;99.90
45283;DHT22;31023;44.994;1.796;2024-02-21T07:23:07;4.90;99.90
45283;DHT22;31023;44.994;1.796;2024-02-21T07:25:32;4.90;99.90
45283;DHT22;31023;44.994;1.796;2024-02-21T07:27:58;5.00;99.90
45283;DHT22;31023;44.994;1.796;2024-02-21T07:30:24;5.20;99.90
45283;DHT22;31023;44.994;1.796;2024-02-21T07:32:50;5.20;99.90
45283;DHT22;31023;44.994;1.796;2024-02-21T07:35:17;5.30;99.90
45283;DHT22;31023;44.994;1.796;2024-02-21T07:37:43;5.20;99.90
45283;DHT22;31023;44.994;1.796;2024-02-21T07:40:16;5.30;99.90
45283;DHT22;31023;44.994;1.796;2024-02-21T07:42:42;5.20;99.90
45283;DHT22;31023;44.994;1.796;2024-02-21T07:45:08;5.20;99.90
45283;DHT22;31023;44.994;1.796;2024-02-21T07:47:36;5.30;99.90
45283;DHT22;31023;44.994;1.796;2024-02-21T07:50:02;5.40;99.80
45283;DHT22;31023;44.994;1.796;2024-02-21T07:52:28;5.60;99.40
45283;DHT22;31023;44.994;1.796;2024-02-21T07:54:54;5.60;99.20
45283;DHT22;31023;44.994;1.796;2024-02-21T07:57:19;5.80;98.80
45283;DHT22;31023;44.994;1.796;2024-02-21T07:59:45;5.90;98.50
45283;DHT22;31023;44.994;1.796;2024-02-21T08:02:16;5.90;98.10
45283;DHT22;31023;44.994;1.796;2024-02-21T08:04:42;5.90;98.50
45283;DHT22;31023;44.994;1.796;2024-02-21T08:07:08;5.90;98.40
45283;DHT22;31023;44.994;1.796;2024-02-21T08:09:34;5.80;98.40
45283;DHT22;31023;44.994;1.796;2024-02-21T08:12:00;5.90;97.80
45283;DHT22;31023;44.994;1.796;2024-02-21T08:14:26;5.90;97.90
45283;DHT22;31023;44.994;1.796;2024-02-21T08:16:52;6.00;97.80
45283;DHT22;31023;44.994;1.796;2024-02-21T08:19:21;6.00;98.00
45283;DHT22;31023;44.994;1.796;2024-02-21T08:21:50;6.10;98.10
45283;DHT22;31023;44.994;1.796;2024-02-21T08:24:16;6.30;98.00
45283;DHT22;31023;44.994;1.796;2024-02-21T08:26:44;6.50;97.50
45283;DHT22;31023;44.994;1.796;2024-02-21T08:29:11;6.70;96.90
45283;DHT22;31023;44.994;1.796;2024-02-21T08:31:37;6.90;95.90
45283;DHT22;31023;44.994;1.796;2024-02-21T08:34:03;7.30;95.00
45283;DHT22;31023;44.994;1.796;2024-02-21T08:36:34;7.60;94.50
45283;DHT22;31023;44.994;1.796;2024-02-21T08:39:00;7.80;94.20
45283;DHT22;31023;44.994;1.796;2024-02-21T08:41:26;7.80;94.50
45283;DHT22;31023;44.994;1.796;2024-02-21T08:43:53;7.70;94.90
45283;DHT22;31023;44.994;1.796;2024-02-21T08:46:20;7.80;95.60
45283;DHT22;31023;44.994;1.796;2024-02-21T08:48:46;8.00;95.10
45283;DHT22;31023;44.994;1.796;2024-02-21T08:51:13;8.10;94.50
45283;DHT22;31023;44.994;1.796;2024-02-21T08:53:38;8.50;93.90
45283;DHT22;31023;44.994;1.796;2024-02-21T08:56:05;8.30;93.50
45283;DHT22;31023;44.994;1.796;2024-02-21T08:58:30;8.30;93.40
45283;DHT22;31023;44.994;1.796;2024-02-21T09:00:56;8.60;92.80
45283;DHT22;31023;44.994;1.796;2024-02-21T09:03:22;8.90;92.30
45283;DHT22;31023;44.994;1.796;2024-02-21T09:05:48;8.70;92.20
45283;DHT22;31023;44.994;1.796;2024-02-21T09:08:14;8.60;92.20
45283;DHT22;31023;44.994;1.796;2024-02-21T09:10:40;8.50;92.40
45283;DHT22;31023;44.994;1.796;2024-02-21T09:13:06;8.10;94.10
45283;DHT22;31023;44.994;1.796;2024-02-21T09:15:33;7.90;94.60
45283;DHT22;31023;44.994;1.796;2024-02-21T09:17:59;7.90;94.70
45283;DHT22;31023;44.994;1.796;2024-02-21T09:20:24;8.00;94.60
45283;DHT22;31023;44.994;1.796;2024-02-21T09:22:50;8.10;94.50
45283;DHT22;31023;44.994;1.796;2024-02-21T09:25:17;8.30;93.90
45283;DHT22;31023;44.994;1.796;2024-02-21T09:27:45;8.60;93.40
45283;DHT22;31023;44.994;1.796;2024-02-21T09:30:11;8.80;93.50
45283;DHT22;31023;44.994;1.796;2024-02-21T09:32:37;8.90;92.50
45283;DHT22;31023;44.994;1.796;2024-02-21T09:35:03;8.90;93.00
45283;DHT22;31023;44.994;1.796;2024-02-21T09:37:30;8.80;93.00
45283;DHT22;31023;44.994;1.796;2024-02-21T09:39:56;8.60;93.40
45283;DHT22;31023;44.994;1.796;2024-02-21T09:42:28;8.50;93.60
45283;DHT22;31023;44.994;1.796;2024-02-21T09:44:56;8.70;94.00
45283;DHT22;31023;44.994;1.796;2024-02-21T09:47:27;9.10;92.90
45283;DHT22;31023;44.994;1.796;2024-02-21T09:49:56;8.90;91.90
45283;DHT22;31023;44.994;1.796;2024-02-21T09:52:23;9.10;92.00
45283;DHT22;31023;44.994;1.796;2024-02-21T09:54:49;9.20;91.00
45283;DHT22;31023;44.994;1.796;2024-02-21T09:57:18;9.60;90.90
45283;DHT22;31023;44.994;1.796;2024-02-21T09:59:45;10.20;90.00
45283;DHT22;31023;44.994;1.796;2024-02-21T10:02:11;10.60;88.90
45283;DHT22;31023;44.994;1.796;2024-02-21T10:04:39;10.60;87.90
45283;DHT22;31023;44.994;1.796;2024-02-21T10:07:05;10.90;86.20
45283;DHT22;31023;44.994;1.796;2024-02-21T10:09:31;11.00;84.30
45283;DHT22;31023;44.994;1.796;2024-02-21T10:12:08;11.00;83.10
45283;DHT22;31023;44.994;1.796;2024-02-21T10:14:34;11.10;82.80
45283;DHT22;31023;44.994;1.796;2024-02-21T10:17:00;11.40;80.90
45283;DHT22;31023;44.994;1.796;2024-02-21T10:19:26;11.50;81.80
45283;DHT22;31023;44.994;1.796;2024-02-21T10:22:03;11.90;80.30
45283;DHT22;31023;44.994;1.796;2024-02-21T10:24:33;12.00;78.20
45283;DHT22;31023;44.994;1.796;2024-02-21T10:27:03;12.30;77.10
45283;DHT22;31023;44.994;1.796;2024-02-21T10:29:33;12.10;77.10
45283;DHT22;31023;44.994;1.796;2024-02-21T10:34:34;12.10;79.50
45283;DHT22;31023;44.994;1.796;2024-02-21T10:37:03;11.70;80.20
45283;DHT22;31023;44.994;1.796;2024-02-21T10:39:33;11.50;80.10
45283;DHT22;31023;44.994;1.796;2024-02-21T10:42:01;11.30;81.20
45283;DHT22;31023;44.994;1.796;2024-02-21T10:44:31;11.30;82.60
45283;DHT22;31023;44.994;1.796;2024-02-21T10:46:57;11.50;81.70
45283;DHT22;31023;44.994;1.796;2024-02-21T10:49:24;11.30;81.70
45283;DHT22;31023;44.994;1.796;2024-02-21T10:51:55;11.20;82.20
45283;DHT22;31023;44.994;1.796;2024-02-21T10:54:30;11.30;82.90
45283;DHT22;31023;44.994;1.796;2024-02-21T10:57:02;11.40;83.40
45283;DHT22;31023;44.994;1.796;2024-02-21T10:59:30;11.40;83.00
45283;DHT22;31023;44.994;1.796;2024-02-21T11:01:57;11.30;83.20
45283;DHT22;31023;44.994;1.796;2024-02-21T11:04:24;11.20;82.70
45283;DHT22;31023;44.994;1.796;2024-02-21T11:06:51;11.30;83.30
45283;DHT22;31023;44.994;1.796;2024-02-21T11:09:17;11.40;84.00
45283;DHT22;31023;44.994;1.796;2024-02-21T11:11:44;11.50;83.00
45283;DHT22;31023;44.994;1.796;2024-02-21T11:14:19;11.60;84.00
45283;DHT22;31023;44.994;1.796;2024-02-21T11:16:45;11.60;82.20
45283;DHT22;31023;44.994;1.796;2024-02-21T11:19:27;11.60;81.20
45283;DHT22;31023;44.994;1.796;2024-02-21T11:21:54;11.70;79.50
45283;DHT22;31023;44.994;1.796;2024-02-21T11:24:27;11.60;77.40
45283;DHT22;31023;44.994;1.796;2024-02-21T11:27:07;11.80;77.30
45283;DHT22;31023;44.994;1.796;2024-02-21T11:29:33;11.80;77.10
45283;DHT22;31023;44.994;1.796;2024-02-21T11:32:09;11.90;77.00
45283;DHT22;31023;44.994;1.796;2024-02-21T11:34:36;12.00;76.10
45283;DHT22;31023;44.994;1.796;2024-02-21T11:37:02;12.00;76.60
45283;DHT22;31023;44.994;1.796;2024-02-21T11:39:37;12.10;76.00
45283;DHT22;31023;44.994;1.796;2024-02-21T11:42:05;12.00;74.70
45283;DHT22;31023;44.994;1.796;2024-02-21T11:44:35;12.00;75.50
45283;DHT22;31023;44.994;1.796;2024-02-21T11:47:03;12.10;74.50
45283;DHT22;31023;44.994;1.796;2024-02-21T11:49:30;12.10;73.70
45283;DHT22;31023;44.994;1.796;2024-02-21T11:52:02;12.10;73.30
45283;DHT22;31023;44.994;1.796;2024-02-21T11:54:31;12.20;76.10
45283;DHT22;31023;44.994;1.796;2024-02-21T11:56:57;12.10;75.30
45283;DHT22;31023;44.994;1.796;2024-02-21T11:59:23;12.10;76.20
45283;DHT22;31023;44.994;1.796;2024-02-21T12:01:49;12.20;76.50
45283;DHT22;31023;44.994;1.796;2024-02-21T12:04:15;12.20;75.00
45283;DHT22;31023;44.994;1.796;2024-02-21T12:06:47;12.70;73.30
45283;DHT22;31023;44.994;1.796;2024-02-21T12:09:16;12.90;72.90
45283;DHT22;31023;44.994;1.796;2024-02-21T12:11:43;13.20;72.90
45283;DHT22;31023;44.994;1.796;2024-02-21T12:14:08;13.50;70.60
45283;DHT22;31023;44.994;1.796;2024-02-21T12:16:35;13.40;69.20
45283;DHT22;31023;44.994;1.796;2024-02-21T12:19:02;13.30;67.60
45283;DHT22;31023;44.994;1.796;2024-02-21T12:21:35;13.30;68.40
45283;DHT22;31023;44.994;1.796;2024-02-21T12:24:36;13.40;68.90
45283;DHT22;31023;44.994;1.796;2024-02-21T12:27:04;13.40;65.10
45283;DHT22;31023;44.994;1.796;2024-02-21T12:29:29;13.70;65.20
45283;DHT22;31023;44.994;1.796;2024-02-21T12:31:55;14.00;67.10
45283;DHT22;31023;44.994;1.796;2024-02-21T12:34:21;14.10;65.90
45283;DHT22;31023;44.994;1.796;2024-02-21T12:36:48;14.20;63.60
45283;DHT22;31023;44.994;1.796;2024-02-21T12:39:13;14.40;64.40
45283;DHT22;31023;44.994;1.796;2024-02-21T12:41:41;14.50;63.40
45283;DHT22;31023;44.994;1.796;2024-02-21T12:44:08;14.50;65.10
45283;DHT22;31023;44.994;1.796;2024-02-21T12:46:34;14.50;66.40
45283;DHT22;31023;44.994;1.796;2024-02-21T12:49:01;14.30;65.30
45283;DHT22;31023;44.994;1.796;2024-02-21T12:51:28;14.20;65.30
45283;DHT22;31023;44.994;1.796;2024-02-21T12:53:55;14.00;67.90
45283;DHT22;31023;44.994;1.796;2024-02-21T12:56:21;13.90;65.00
45283;DHT22;31023;44.994;1.796;2024-02-21T12:58:46;13.70;64.00
45283;DHT22;31023;44.994;1.796;2024-02-21T13:01:12;13.50;66.30
45283;DHT22;31023;44.994;1.796;2024-02-21T13:03:38;13.30;66.00
45283;DHT22;31023;44.994;1.796;2024-02-21T13:06:04;13.20;66.40
45283;DHT22;31023;44.994;1.796;2024-02-21T13:08:30;13.10;66.00
45283;DHT22;31023;44.994;1.796;2024-02-21T13:10:56;13.20;65.90
45283;DHT22;31023;44.994;1.796;2024-02-21T13:13:22;13.20;65.00
45283;DHT22;31023;44.994;1.796;2024-02-21T13:15:47;13.40;65.30
45283;DHT22;31023;44.994;1.796;2024-02-21T13:18:13;13.60;64.60
45283;DHT22;31023;44.994;1.796;2024-02-21T13:20:39;13.80;63.70
45283;DHT22;31023;44.994;1.796;2024-02-21T13:23:04;14.00;63.90
45283;DHT22;31023;44.994;1.796;2024-02-21T13:25:30;14.00;64.20
45283;DHT22;31023;44.994;1.796;2024-02-21T13:27:56;13.90;63.20
45283;DHT22;31023;44.994;1.796;2024-02-21T13:30:24;13.90;62.60
45283;DHT22;31023;44.994;1.796;2024-02-21T13:32:51;13.80;64.30
45283;DHT22;31023;44.994;1.796;2024-02-21T13:35:17;13.90;64.20
45283;DHT22;31023;44.994;1.796;2024-02-21T13:37:43;13.90;62.70
45283;DHT22;31023;44.994;1.796;2024-02-21T13:40:09;13.90;63.50
45283;DHT22;31023;44.994;1.796;2024-02-21T13:42:36;14.20;63.90
45283;DHT22;31023;44.994;1.796;2024-02-21T13:45:03;14.40;63.00
45283;DHT22;31023;44.994;1.796;2024-02-21T13:47:30;14.50;62.70
45283;DHT22;31023;44.994;1.796;2024-02-21T13:49:56;14.60;62.30
45283;DHT22;31023;44.994;1.796;2024-02-21T13:52:22;14.70;62.90
45283;DHT22;31023;44.994;1.796;2024-02-21T13:54:48;14.70;61.90
45283;DHT22;31023;44.994;1.796;2024-02-21T13:57:14;14.70;63.10
45283;DHT22;31023;44.994;1.796;2024-02-21T13:59:40;14.60;62.20
45283;DHT22;31023;44.994;1.796;2024-02-21T14:02:06;14.70;63.10
45283;DHT22;31023;44.994;1.796;2024-02-21T14:04:35;14.60;61.10
45283;DHT22;31023;44.994;1.796;2024-02-21T14:07:01;14.60;61.70
45283;DHT22;31023;44.994;1.796;2024-02-21T14:09:27;14.60;61.90
45283;DHT22;31023;44.994;1.796;2024-02-21T14:11:55;14.60;62.20
45283;DHT22;31023;44.994;1.796;2024-02-21T14:14:21;14.60;61.60
45283;DHT22;31023;44.994;1.796;2024-02-21T14:16:46;14.50;62.10
45283;DHT22;31023;44.994;1.796;2024-02-21T14:19:15;14.50;61.70
45283;DHT22;31023;44.994;1.796;2024-02-21T14:21:40;14.50;61.70
45283;DHT22;31023;44.994;1.796;2024-02-21T14:24:06;14.60;62.20
45283;DHT22;31023;44.994;1.796;2024-02-21T14:26:33;14.60;62.10
45283;DHT22;31023;44.994;1.796;2024-02-21T14:28:59;14.70;62.50
45283;DHT22;31023;44.994;1.796;2024-02-21T14:31:25;14.70;62.80
45283;DHT22;31023;44.994;1.796;2024-02-21T14:33:51;14.70;61.60
45283;DHT22;31023;44.994;1.796;2024-02-21T14:36:17;14.70;62.50
45283;DHT22;31023;44.994;1.796;2024-02-21T14:38:43;14.60;62.00
45283;DHT22;31023;44.994;1.796;2024-02-21T14:41:10;14.60;62.40
45283;DHT22;31023;44.994;1.796;2024-02-21T14:43:39;14.60;62.80
45283;DHT22;31023;44.994;1.796;2024-02-21T14:46:05;14.60;60.50
45283;DHT22;31023;44.994;1.796;2024-02-21T14:48:32;14.70;59.90
45283;DHT22;31023;44.994;1.796;2024-02-21T14:51:00;14.80;58.20
45283;DHT22;31023;44.994;1.796;2024-02-21T14:53:26;14.60;56.00
45283;DHT22;31023;44.994;1.796;2024-02-21T14:55:52;14.50;57.00
45283;DHT22;31023;44.994;1.796;2024-02-21T14:58:17;14.40;56.70
45283;DHT22;31023;44.994;1.796;2024-02-21T15:00:45;14.40;56.70
45283;DHT22;31023;44.994;1.796;2024-02-21T15:03:12;14.40;55.70
45283;DHT22;31023;44.994;1.796;2024-02-21T15:05:41;14.40;55.50
45283;DHT22;31023;44.994;1.796;2024-02-21T15:08:07;14.30;56.60
45283;DHT22;31023;44.994;1.796;2024-02-21T15:10:36;14.30;55.80
45283;DHT22;31023;44.994;1.796;2024-02-21T15:13:02;14.30;55.70
45283;DHT22;31023;44.994;1.796;2024-02-21T15:15:28;14.20;54.60
45283;DHT22;31023;44.994;1.796;2024-02-21T15:17:54;14.20;54.90
45283;DHT22;31023;44.994;1.796;2024-02-21T15:20:20;14.10;54.10
45283;DHT22;31023;44.994;1.796;2024-02-21T15:22:45;14.10;55.00
45283;DHT22;31023;44.994;1.796;2024-02-21T15:25:11;14.00;55.50
45283;DHT22;31023;44.994;1.796;2024-02-21T15:27:43;14.00;54.70
45283;DHT22;31023;44.994;1.796;2024-02-21T15:30:10;14.00;55.60
45283;DHT22;31023;44.994;1.796;2024-02-21T15:32:36;14.00;55.60
45283;DHT22;31023;44.994;1.796;2024-02-21T15:35:06;14.00;55.00
45283;DHT22;31023;44.994;1.796;2024-02-21T15:37:33;14.00;54.80
45283;DHT22;31023;44.994;1.796;2024-02-21T15:39:58;13.90;55.40
45283;DHT22;31023;44.994;1.796;2024-02-21T15:42:24;13.80;55.70